sensor_id;sensor_type;location;lat;lon;timestamp;pressure;altitude;pressure_sealevel;temperature;humidity
80401;BME280;69727;53.132;8.230;2023-05-13T02:36:39;102215.22;;;10.09;74.54
80401;BME280;69727;53.132;8.230;2023-05-13T02:39:05;102223.13;;;10.05;74.96
80401;BME280;69727;53.132;8.230;2023-05-13T02:41:31;102224.00;;;10.02;75.18
80401;BME280;69727;53.132;8.230;2023-05-13T02:43:56;102223.06;;;9.96;74.94
80401;BME280;69727;53.132;8.230;2023-05-13T02:46:22;102218.63;;;9.91;75.27
80401;BME280;69727;53.132;8.230;2023-05-13T02:48:47;102222.16;;;9.87;75.83
80401;BME280;69727;53.132;8.230;2023-05-13T02:51:12;102220.38;;;9.86;75.97
80401;BME280;69727;53.132;8.230;2023-05-13T02:53:38;102219.50;;;9.83;75.92
80401;BME280;69727;53.132;8.230;2023-05-13T02:56:04;102223.88;;;9.82;76.17
80401;BME280;69727;53.132;8.230;2023-05-13T02:58:29;102213.25;;;9.78;76.04
80401;BME280;69727;53.132;8.230;2023-05-13T03:00:55;102218.56;;;9.78;76.11
80401;BME280;69727;53.132;8.230;2023-05-13T03:03:20;102214.13;;;9.72;76.37
80401;BME280;69727;53.132;8.230;2023-05-13T03:05:45;102213.22;;;9.70;76.31
80401;BME280;69727;53.132;8.230;2023-05-13T03:08:11;102215.84;;;9.68;76.84
80401;BME280;69727;53.132;8.230;2023-05-13T03:10:36;102219.41;;;9.69;76.74
80401;BME280;69727;53.132;8.230;2023-05-13T03:13:01;102209.69;;;9.68;76.73
80401;BME280;69727;53.132;8.230;2023-05-13T03:15:27;102229.03;;;9.65;76.77
80401;BME280;69727;53.132;8.230;2023-05-13T03:17:52;102215.78;;;9.57;77.08
80401;BME280;69727;53.132;8.230;2023-05-13T03:20:18;102227.22;;;9.55;77.44
80401;BME280;69727;53.132;8.230;2023-05-13T03:22:43;102219.28;;;9.53;77.43
80401;BME280;69727;53.132;8.230;2023-05-13T03:25:09;102206.03;;;9.47;77.47
80401;BME280;69727;53.132;8.230;2023-05-13T03:27:34;102217.47;;;9.48;77.42
80401;BME280;69727;53.132;8.230;2023-05-13T03:29:59;102216.56;;;9.43;77.58
80401;BME280;69727;53.132;8.230;2023-05-13T03:32:25;102214.81;;;9.45;77.95
80401;BME280;69727;53.132;8.230;2023-05-13T03:34:55;102215.72;;;9.45;77.55
80401;BME280;69727;53.132;8.230;2023-05-13T03:37:22;102213.06;;;9.44;77.84
80401;BME280;69727;53.132;8.230;2023-05-13T03:39:59;102206.84;;;9.40;77.85
80401;BME280;69727;53.132;8.230;2023-05-13T03:42:24;102217.41;;;9.42;77.69
80401;BME280;69727;53.132;8.230;2023-05-13T03:44:50;102220.94;;;9.41;77.94
80401;BME280;69727;53.132;8.230;2023-05-13T03:47:16;102224.44;;;9.36;77.81
80401;BME280;69727;53.132;8.230;2023-05-13T03:49:41;102227.91;;;9.32;78.36
80401;BME280;69727;53.132;8.230;2023-05-13T03:52:06;102228.78;;;9.31;78.43
80401;BME280;69727;53.132;8.230;2023-05-13T03:54:33;102229.66;;;9.30;78.36
80401;BME280;69727;53.132;8.230;2023-05-13T03:56:59;102231.44;;;9.31;78.26
80401;BME280;69727;53.132;8.230;2023-05-13T03:59:24;102235.78;;;9.29;78.15
80401;BME280;69727;53.132;8.230;2023-05-13T04:01:50;102227.84;;;9.26;78.62
80401;BME280;69727;53.132;8.230;2023-05-13T04:04:15;102232.25;;;9.26;78.43
80401;BME280;69727;53.132;8.230;2023-05-13T04:06:40;102234.03;;;9.27;78.39
80401;BME280;69727;53.132;8.230;2023-05-13T04:09:06;102234.97;;;9.33;78.51
80401;BME280;69727;53.132;8.230;2023-05-13T04:11:31;102231.44;;;9.31;78.32
80401;BME280;69727;53.132;8.230;2023-05-13T04:13:57;102242.88;;;9.33;78.34
80401;BME280;69727;53.132;8.230;2023-05-13T04:16:22;102240.25;;;9.33;78.60
80401;BME280;69727;53.132;8.230;2023-05-13T04:18:48;102245.56;;;9.36;78.19
80401;BME280;69727;53.132;8.230;2023-05-13T04:21:13;102238.50;;;9.37;78.04
80401;BME280;69727;53.132;8.230;2023-05-13T04:23:39;102242.94;;;9.41;78.31
80401;BME280;69727;53.132;8.230;2023-05-13T04:26:05;102250.91;;;9.46;78.16
80401;BME280;69727;53.132;8.230;2023-05-13T04:28:30;102250.94;;;9.50;78.34
80401;BME280;69727;53.132;8.230;2023-05-13T04:30:56;102250.09;;;9.56;77.75
80401;BME280;69727;53.132;8.230;2023-05-13T04:33:21;102252.81;;;9.65;77.50
80401;BME280;69727;53.132;8.230;2023-05-13T04:35:47;102252.03;;;9.79;77.17
80401;BME280;69727;53.132;8.230;2023-05-13T04:38:12;102254.78;;;9.92;77.21
80401;BME280;69727;53.132;8.230;2023-05-13T04:40:38;102252.19;;;10.00;76.41
80401;BME280;69727;53.132;8.230;2023-05-13T04:43:03;102256.63;;;10.12;75.96
80401;BME280;69727;53.132;8.230;2023-05-13T04:45:29;102260.22;;;10.19;75.84
80401;BME280;69727;53.132;8.230;2023-05-13T04:47:56;102253.16;;;10.18;75.68
80401;BME280;69727;53.132;8.230;2023-05-13T04:50:21;102250.50;;;10.19;75.02
80401;BME280;69727;53.132;8.230;2023-05-13T04:52:47;102258.47;;;10.22;75.68
80401;BME280;69727;53.132;8.230;2023-05-13T04:55:12;102261.22;;;10.38;74.21
80401;BME280;69727;53.132;8.230;2023-05-13T04:57:38;102261.28;;;10.52;74.75
80401;BME280;69727;53.132;8.230;2023-05-13T05:00:04;102264.88;;;10.69;73.46
80401;BME280;69727;53.132;8.230;2023-05-13T05:02:29;102264.03;;;10.86;73.42
80401;BME280;69727;53.132;8.230;2023-05-13T05:04:55;102264.06;;;11.06;72.19
80401;BME280;69727;53.132;8.230;2023-05-13T05:07:21;102274.69;;;11.24;71.22
80401;BME280;69727;53.132;8.230;2023-05-13T05:09:47;102275.56;;;11.35;71.03
80401;BME280;69727;53.132;8.230;2023-05-13T05:12:13;102281.75;;;11.48;70.86
80401;BME280;69727;53.132;8.230;2023-05-13T05:14:38;102281.75;;;11.62;70.35
80401;BME280;69727;53.132;8.230;2023-05-13T05:17:04;102287.06;;;11.78;69.82
80401;BME280;69727;53.132;8.230;2023-05-13T05:19:29;102286.16;;;11.93;69.20
80401;BME280;69727;53.132;8.230;2023-05-13T05:21:54;102285.28;;;12.06;68.06
80401;BME280;69727;53.132;8.230;2023-05-13T05:24:20;102286.13;;;12.20;67.52
80401;BME280;69727;53.132;8.230;2023-05-13T05:26:45;102291.38;;;12.33;67.16
80401;BME280;69727;53.132;8.230;2023-05-13T05:29:10;102281.63;;;12.39;67.37
80401;BME280;69727;53.132;8.230;2023-05-13T05:31:36;102287.81;;;12.51;66.62
80401;BME280;69727;53.132;8.230;2023-05-13T05:34:01;102285.09;;;12.58;66.89
80401;BME280;69727;53.132;8.230;2023-05-13T05:36:28;102288.59;;;12.71;66.61
80401;BME280;69727;53.132;8.230;2023-05-13T05:38:53;102280.59;;;12.82;65.71
80401;BME280;69727;53.132;8.230;2023-05-13T05:41:21;102284.94;;;12.92;64.69
80401;BME280;69727;53.132;8.230;2023-05-13T05:43:50;102291.03;;;13.05;64.75
80401;BME280;69727;53.132;8.230;2023-05-13T05:46:15;102293.66;;;13.13;63.96
80401;BME280;69727;53.132;8.230;2023-05-13T05:48:41;102285.66;;;13.16;63.58
80401;BME280;69727;53.132;8.230;2023-05-13T05:51:06;102294.47;;;13.23;63.38
80401;BME280;69727;53.132;8.230;2023-05-13T05:53:33;102287.38;;;13.28;63.54
80401;BME280;69727;53.132;8.230;2023-05-13T05:55:59;102288.22;;;13.31;63.81
80401;BME280;69727;53.132;8.230;2023-05-13T05:58:25;102285.56;;;13.34;63.39
80401;BME280;69727;53.132;8.230;2023-05-13T06:00:51;102289.97;;;13.40;62.47
80401;BME280;69727;53.132;8.230;2023-05-13T06:03:18;102293.44;;;13.51;62.75
80401;BME280;69727;53.132;8.230;2023-05-13T06:05:44;102295.16;;;13.54;62.53
80401;BME280;69727;53.132;8.230;2023-05-13T06:08:09;102282.75;;;13.58;62.54
80401;BME280;69727;53.132;8.230;2023-05-13T06:10:35;102301.25;;;13.70;62.35
80401;BME280;69727;53.132;8.230;2023-05-13T06:13:00;102300.28;;;13.77;61.75
80401;BME280;69727;53.132;8.230;2023-05-13T06:15:26;102296.72;;;13.81;61.67
80401;BME280;69727;53.132;8.230;2023-05-13T06:17:51;102296.69;;;13.84;60.32
80401;BME280;69727;53.132;8.230;2023-05-13T06:20:17;102306.28;;;13.98;61.42
80401;BME280;69727;53.132;8.230;2023-05-13T06:22:42;102294.78;;;13.96;60.58
80401;BME280;69727;53.132;8.230;2023-05-13T06:25:08;102295.63;;;13.99;60.28
80401;BME280;69727;53.132;8.230;2023-05-13T06:27:33;102291.09;;;14.12;59.98
80401;BME280;69727;53.132;8.230;2023-05-13T06:29:59;102291.94;;;14.16;60.96
80401;BME280;69727;53.132;8.230;2023-05-13T06:32:25;102291.00;;;14.18;60.07
80401;BME280;69727;53.132;8.230;2023-05-13T06:34:50;102284.78;;;14.19;60.11
80401;BME280;69727;53.132;8.230;2023-05-13T06:37:16;102290.00;;;14.29;59.82
80401;BME280;69727;53.132;8.230;2023-05-13T06:39:42;102291.75;;;14.33;60.90
80401;BME280;69727;53.132;8.230;2023-05-13T06:42:07;102287.22;;;14.39;60.91
80401;BME280;69727;53.132;8.230;2023-05-13T06:44:32;102281.81;;;14.47;59.64
80401;BME280;69727;53.132;8.230;2023-05-13T06:46:58;102289.66;;;14.61;59.39
80401;BME280;69727;53.132;8.230;2023-05-13T06:49:23;102284.25;;;14.69;59.82
80401;BME280;69727;53.132;8.230;2023-05-13T06:51:49;102287.69;;;14.75;60.28
80401;BME280;69727;53.132;8.230;2023-05-13T06:54:15;102289.34;;;14.83;58.77
80401;BME280;69727;53.132;8.230;2023-05-13T06:56:40;102301.75;;;14.87;58.67
80401;BME280;69727;53.132;8.230;2023-05-13T06:59:06;102285.66;;;14.94;58.68
80401;BME280;69727;53.132;8.230;2023-05-13T07:01:31;102287.34;;;15.02;59.01
80401;BME280;69727;53.132;8.230;2023-05-13T07:03:56;102288.88;;;15.17;58.92
80401;BME280;69727;53.132;8.230;2023-05-13T07:06:22;102287.91;;;15.22;59.12
80401;BME280;69727;53.132;8.230;2023-05-13T07:08:47;102285.88;;;15.38;57.73
80401;BME280;69727;53.132;8.230;2023-05-13T07:11:12;102289.00;;;15.65;57.87
80401;BME280;69727;53.132;8.230;2023-05-13T07:13:38;102284.00;;;15.98;57.02
80401;BME280;69727;53.132;8.230;2023-05-13T07:16:03;102283.84;;;16.51;55.55
80401;BME280;69727;53.132;8.230;2023-05-13T07:18:29;102282.13;;;17.29;53.93
80401;BME280;69727;53.132;8.230;2023-05-13T07:20:54;102280.53;;;18.24;49.99
80401;BME280;69727;53.132;8.230;2023-05-13T07:23:23;102276.19;;;19.11;48.44
80401;BME280;69727;53.132;8.230;2023-05-13T07:25:49;102273.63;;;19.61;46.00
80401;BME280;69727;53.132;8.230;2023-05-13T07:28:17;102267.78;;;20.02;45.96
80401;BME280;69727;53.132;8.230;2023-05-13T07:30:44;102270.91;;;20.39;45.03
80401;BME280;69727;53.132;8.230;2023-05-13T07:33:09;102273.25;;;20.72;44.48
80401;BME280;69727;53.132;8.230;2023-05-13T07:35:35;102269.38;;;21.02;42.71
80401;BME280;69727;53.132;8.230;2023-05-13T07:38:01;102272.91;;;21.25;43.03
80401;BME280;69727;53.132;8.230;2023-05-13T07:40:27;102275.59;;;21.25;42.05
80401;BME280;69727;53.132;8.230;2023-05-13T07:42:52;102271.75;;;20.88;43.32
80401;BME280;69727;53.132;8.230;2023-05-13T07:45:18;102270.44;;;20.27;45.68
80401;BME280;69727;53.132;8.230;2023-05-13T07:47:43;102277.56;;;19.51;45.95
80401;BME280;69727;53.132;8.230;2023-05-13T07:50:09;102283.56;;;19.04;47.75
80401;BME280;69727;53.132;8.230;2023-05-13T07:52:34;102281.13;;;18.67;49.37
80401;BME280;69727;53.132;8.230;2023-05-13T07:55:00;102271.16;;;18.41;50.68
80401;BME280;69727;53.132;8.230;2023-05-13T07:57:26;102277.81;;;18.26;50.92
80401;BME280;69727;53.132;8.230;2023-05-13T07:59:51;102277.38;;;18.10;52.08
80401;BME280;69727;53.132;8.230;2023-05-13T08:02:17;102290.22;;;17.97;53.05
80401;BME280;69727;53.132;8.230;2023-05-13T08:04:43;102282.28;;;17.94;53.62
80401;BME280;69727;53.132;8.230;2023-05-13T08:07:09;102286.59;;;17.99;54.12
80401;BME280;69727;53.132;8.230;2023-05-13T08:09:35;102282.03;;;18.03;53.00
80401;BME280;69727;53.132;8.230;2023-05-13T08:12:00;102275.72;;;18.06;53.35
80401;BME280;69727;53.132;8.230;2023-05-13T08:14:26;102272.97;;;18.09;52.44
80401;BME280;69727;53.132;8.230;2023-05-13T08:16:51;102274.59;;;18.14;52.78
80401;BME280;69727;53.132;8.230;2023-05-13T08:19:18;102274.28;;;18.25;52.89
80401;BME280;69727;53.132;8.230;2023-05-13T08:21:43;102270.59;;;18.29;51.76
80401;BME280;69727;53.132;8.230;2023-05-13T08:24:09;102274.97;;;18.32;51.09
80401;BME280;69727;53.132;8.230;2023-05-13T08:26:35;102272.94;;;18.42;51.94
80401;BME280;69727;53.132;8.230;2023-05-13T08:29:01;102272.72;;;18.48;52.56
80401;BME280;69727;53.132;8.230;2023-05-13T08:31:26;102275.03;;;18.60;52.10
80401;BME280;69727;53.132;8.230;2023-05-13T08:33:52;102273.03;;;18.68;51.84
80401;BME280;69727;53.132;8.230;2023-05-13T08:36:19;102273.56;;;18.80;51.54
80401;BME280;69727;53.132;8.230;2023-05-13T08:38:44;102271.41;;;18.93;50.47
80401;BME280;69727;53.132;8.230;2023-05-13T08:41:13;102271.84;;;19.07;50.00
80401;BME280;69727;53.132;8.230;2023-05-13T08:43:41;102269.59;;;19.21;50.11
80401;BME280;69727;53.132;8.230;2023-05-13T08:46:10;102268.47;;;19.29;50.68
80401;BME280;69727;53.132;8.230;2023-05-13T08:48:40;102265.41;;;19.41;50.79
80401;BME280;69727;53.132;8.230;2023-05-13T08:51:07;102270.34;;;19.53;48.73
80401;BME280;69727;53.132;8.230;2023-05-13T08:53:33;102275.31;;;19.66;48.20
80401;BME280;69727;53.132;8.230;2023-05-13T08:55:59;102273.00;;;19.82;48.84
80401;BME280;69727;53.132;8.230;2023-05-13T08:58:25;102265.19;;;19.99;48.58
80401;BME280;69727;53.132;8.230;2023-05-13T09:00:51;102271.75;;;20.15;47.82
80401;BME280;69727;53.132;8.230;2023-05-13T09:03:18;102265.75;;;20.32;47.37
80401;BME280;69727;53.132;8.230;2023-05-13T09:05:44;102271.38;;;20.50;46.47
80401;BME280;69727;53.132;8.230;2023-05-13T09:08:10;102262.03;;;20.60;47.05
80401;BME280;69727;53.132;8.230;2023-05-13T09:10:38;102263.19;;;20.77;47.43
80401;BME280;69727;53.132;8.230;2023-05-13T09:13:04;102260.88;;;20.91;46.01
80401;BME280;69727;53.132;8.230;2023-05-13T09:15:30;102260.38;;;21.03;44.94
80401;BME280;69727;53.132;8.230;2023-05-13T09:18:03;102266.81;;;21.21;45.26
80401;BME280;69727;53.132;8.230;2023-05-13T09:20:29;102261.78;;;21.34;44.54
80401;BME280;69727;53.132;8.230;2023-05-13T09:23:15;102270.94;;;21.52;44.26
80401;BME280;69727;53.132;8.230;2023-05-13T09:25:41;102265.69;;;21.70;43.98
80401;BME280;69727;53.132;8.230;2023-05-13T09:28:07;102263.94;;;21.89;43.72
80401;BME280;69727;53.132;8.230;2023-05-13T09:30:37;102263.41;;;22.02;43.77
80401;BME280;69727;53.132;8.230;2023-05-13T09:33:14;102263.78;;;22.13;44.17
80401;BME280;69727;53.132;8.230;2023-05-13T09:35:48;102266.44;;;22.35;43.38
80401;BME280;69727;53.132;8.230;2023-05-13T09:38:26;102255.88;;;22.49;44.32
80401;BME280;69727;53.132;8.230;2023-05-13T09:40:57;102256.00;;;22.65;41.05
80401;BME280;69727;53.132;8.230;2023-05-13T09:43:25;102262.19;;;22.86;41.30
80401;BME280;69727;53.132;8.230;2023-05-13T09:45:56;102251.09;;;23.12;41.88
80401;BME280;69727;53.132;8.230;2023-05-13T09:48:26;102254.00;;;23.26;40.68
80401;BME280;69727;53.132;8.230;2023-05-13T09:50:52;102244.78;;;23.48;40.79
80401;BME280;69727;53.132;8.230;2023-05-13T09:53:22;102256.00;;;23.75;41.01
80401;BME280;69727;53.132;8.230;2023-05-13T09:55:52;102246.88;;;23.95;39.89
80401;BME280;69727;53.132;8.230;2023-05-13T09:58:19;102248.88;;;24.25;39.16
80401;BME280;69727;53.132;8.230;2023-05-13T10:00:45;102250.72;;;24.40;38.41
80401;BME280;69727;53.132;8.230;2023-05-13T10:03:12;102244.94;;;24.64;38.36
80401;BME280;69727;53.132;8.230;2023-05-13T10:05:38;102243.88;;;24.82;37.48
80401;BME280;69727;53.132;8.230;2023-05-13T10:08:07;102238.41;;;25.00;35.48
80401;BME280;69727;53.132;8.230;2023-05-13T10:10:34;102249.09;;;25.17;36.14
80401;BME280;69727;53.132;8.230;2023-05-13T10:13:12;102237.38;;;25.17;35.55
80401;BME280;69727;53.132;8.230;2023-05-13T10:15:48;102239.81;;;25.38;36.46
80401;BME280;69727;53.132;8.230;2023-05-13T10:18:15;102235.78;;;25.45;33.75
80401;BME280;69727;53.132;8.230;2023-05-13T10:20:42;102237.63;;;25.44;34.61
80401;BME280;69727;53.132;8.230;2023-05-13T10:23:08;102230.75;;;25.53;33.63
80401;BME280;69727;53.132;8.230;2023-05-13T10:25:35;102225.28;;;25.69;33.54
80401;BME280;69727;53.132;8.230;2023-05-13T10:28:02;102226.56;;;25.78;34.78
80401;BME280;69727;53.132;8.230;2023-05-13T10:30:28;102214.97;;;25.90;33.14
80401;BME280;69727;53.132;8.230;2023-05-13T10:32:56;102219.16;;;26.10;34.17
80401;BME280;69727;53.132;8.230;2023-05-13T10:35:23;102214.31;;;26.30;32.20
80401;BME280;69727;53.132;8.230;2023-05-13T10:38:00;102213.78;;;26.52;32.56
80401;BME280;69727;53.132;8.230;2023-05-13T10:40:34;102206.69;;;26.64;30.33
80401;BME280;69727;53.132;8.230;2023-05-13T10:45:55;102212.13;;;26.78;29.56
80401;BME280;69727;53.132;8.230;2023-05-13T10:48:21;102207.13;;;26.85;29.52
80401;BME280;69727;53.132;8.230;2023-05-13T10:50:54;102197.16;;;27.12;29.18
80401;BME280;69727;53.132;8.230;2023-05-13T10:53:26;102207.81;;;27.15;27.42
80401;BME280;69727;53.132;8.230;2023-05-13T10:55:54;102197.00;;;27.41;26.74
80401;BME280;69727;53.132;8.230;2023-05-13T10:58:21;102199.13;;;27.63;26.90
80401;BME280;69727;53.132;8.230;2023-05-13T11:00:52;102194.88;;;27.72;26.77
80401;BME280;69727;53.132;8.230;2023-05-13T11:05:57;102191.84;;;27.77;26.04
80401;BME280;69727;53.132;8.230;2023-05-13T11:08:39;102197.16;;;27.91;23.69
80401;BME280;69727;53.132;8.230;2023-05-13T11:14:01;102186.44;;;28.39;22.54
80401;BME280;69727;53.132;8.230;2023-05-13T11:16:27;102181.41;;;28.46;21.29
80401;BME280;69727;53.132;8.230;2023-05-13T11:18:52;102184.78;;;28.63;23.28
80401;BME280;69727;53.132;8.230;2023-05-13T11:21:29;102177.25;;;28.66;23.85
80401;BME280;69727;53.132;8.230;2023-05-13T11:23:56;102184.28;;;28.93;25.00
80401;BME280;69727;53.132;8.230;2023-05-13T11:26:22;102181.63;;;29.04;21.14
80401;BME280;69727;53.132;8.230;2023-05-13T11:28:56;102181.81;;;29.14;21.74
80401;BME280;69727;53.132;8.230;2023-05-13T11:31:22;102174.97;;;29.44;22.26
80401;BME280;69727;53.132;8.230;2023-05-13T11:34:08;102174.03;;;29.56;22.01
80401;BME280;69727;53.132;8.230;2023-05-13T11:36:36;102177.00;;;29.64;21.46
80401;BME280;69727;53.132;8.230;2023-05-13T11:39:09;102170.38;;;29.44;21.28
80401;BME280;69727;53.132;8.230;2023-05-13T11:41:36;102172.50;;;29.41;21.93
80401;BME280;69727;53.132;8.230;2023-05-13T11:44:03;102175.31;;;29.28;21.88
80401;BME280;69727;53.132;8.230;2023-05-13T11:46:30;102173.72;;;29.37;21.45
80401;BME280;69727;53.132;8.230;2023-05-13T11:48:55;102164.47;;;29.62;21.24
80401;BME280;69727;53.132;8.230;2023-05-13T11:51:21;102159.75;;;29.64;19.75
80401;BME280;69727;53.132;8.230;2023-05-13T11:53:46;102168.44;;;29.58;21.04
80401;BME280;69727;53.132;8.230;2023-05-13T11:56:12;102171.72;;;29.27;20.57
80401;BME280;69727;53.132;8.230;2023-05-13T11:58:37;102168.47;;;29.22;21.19
80401;BME280;69727;53.132;8.230;2023-05-13T12:01:03;102166.97;;;28.70;20.63
80401;BME280;69727;53.132;8.230;2023-05-13T12:03:28;102162.25;;;28.85;23.65
80401;BME280;69727;53.132;8.230;2023-05-13T12:06:00;102163.03;;;29.22;21.44
80401;BME280;69727;53.132;8.230;2023-05-13T12:08:25;102162.34;;;29.43;21.08
80401;BME280;69727;53.132;8.230;2023-05-13T12:10:51;102162.09;;;29.57;20.88
80401;BME280;69727;53.132;8.230;2023-05-13T12:13:17;102161.72;;;29.51;20.55
80401;BME280;69727;53.132;8.230;2023-05-13T12:15:43;102158.97;;;29.86;22.54
80401;BME280;69727;53.132;8.230;2023-05-13T12:18:08;102160.19;;;29.93;21.78
80401;BME280;69727;53.132;8.230;2023-05-13T12:20:34;102158.69;;;30.00;22.76
80401;BME280;69727;53.132;8.230;2023-05-13T12:23:00;102166.13;;;29.87;20.36
80401;BME280;69727;53.132;8.230;2023-05-13T12:31:00;102158.16;;;30.52;20.77
80401;BME280;69727;53.132;8.230;2023-05-13T12:33:48;102149.84;;;30.42;21.09
80401;BME280;69727;53.132;8.230;2023-05-13T12:36:27;102153.56;;;30.30;20.47
80401;BME280;69727;53.132;8.230;2023-05-13T12:39:07;102151.38;;;30.24;21.18
80401;BME280;69727;53.132;8.230;2023-05-13T12:44:02;102154.16;;;29.07;22.28
80401;BME280;69727;53.132;8.230;2023-05-13T12:46:28;102159.72;;;29.41;21.95
80401;BME280;69727;53.132;8.230;2023-05-13T12:48:58;102152.59;;;29.63;21.78
80401;BME280;69727;53.132;8.230;2023-05-13T12:51:24;102161.81;;;29.26;20.51
80401;BME280;69727;53.132;8.230;2023-05-13T12:53:50;102156.38;;;29.38;21.75
80401;BME280;69727;53.132;8.230;2023-05-13T12:56:18;102151.09;;;29.59;21.60
80401;BME280;69727;53.132;8.230;2023-05-13T12:58:43;102141.19;;;30.03;20.98
80401;BME280;69727;53.132;8.230;2023-05-13T13:01:09;102143.50;;;30.53;22.82
80401;BME280;69727;53.132;8.230;2023-05-13T13:03:34;102132.53;;;30.21;19.93
80401;BME280;69727;53.132;8.230;2023-05-13T13:06:00;102152.50;;;29.87;21.02
80401;BME280;69727;53.132;8.230;2023-05-13T13:08:25;102143.31;;;29.19;22.65
80401;BME280;69727;53.132;8.230;2023-05-13T13:10:51;102144.47;;;28.68;22.26
80401;BME280;69727;53.132;8.230;2023-05-13T13:13:17;102145.69;;;28.64;22.00
80401;BME280;69727;53.132;8.230;2023-05-13T13:15:42;102143.22;;;28.96;22.14
80401;BME280;69727;53.132;8.230;2023-05-13T13:18:07;102145.22;;;29.29;21.69
80401;BME280;69727;53.132;8.230;2023-05-13T13:20:33;102143.44;;;29.75;21.66
80401;BME280;69727;53.132;8.230;2023-05-13T13:22:58;102138.59;;;30.24;22.18
80401;BME280;69727;53.132;8.230;2023-05-13T13:25:25;102128.31;;;30.71;21.46
80401;BME280;69727;53.132;8.230;2023-05-13T13:27:51;102123.06;;;31.12;20.98
80401;BME280;69727;53.132;8.230;2023-05-13T13:30:16;102127.19;;;31.27;19.46
80401;BME280;69727;53.132;8.230;2023-05-13T13:32:41;102124.97;;;31.21;19.12
80401;BME280;69727;53.132;8.230;2023-05-13T13:35:08;102135.63;;;31.03;19.21
80401;BME280;69727;53.132;8.230;2023-05-13T13:37:33;102129.38;;;30.36;20.11
80401;BME280;69727;53.132;8.230;2023-05-13T13:39:59;102137.75;;;29.90;20.81
80401;BME280;69727;53.132;8.230;2023-05-13T13:42:24;102135.19;;;29.06;20.85
80401;BME280;69727;53.132;8.230;2023-05-13T13:44:50;102131.63;;;28.33;21.51
80401;BME280;69727;53.132;8.230;2023-05-13T13:47:15;102129.84;;;28.45;21.39
80401;BME280;69727;53.132;8.230;2023-05-13T13:49:40;102120.56;;;28.84;21.06
80401;BME280;69727;53.132;8.230;2023-05-13T13:52:07;102117.91;;;29.18;21.64
80401;BME280;69727;53.132;8.230;2023-05-13T13:54:32;102119.75;;;29.53;22.14
80401;BME280;69727;53.132;8.230;2023-05-13T13:56:57;102113.47;;;29.87;20.04
80401;BME280;69727;53.132;8.230;2023-05-13T13:59:23;102110.38;;;29.91;20.74
80401;BME280;69727;53.132;8.230;2023-05-13T14:01:48;102101.63;;;30.20;20.83
80401;BME280;69727;53.132;8.230;2023-05-13T14:04:16;102107.44;;;30.38;20.07
80401;BME280;69727;53.132;8.230;2023-05-13T14:06:44;102104.13;;;30.12;20.07
80401;BME280;69727;53.132;8.230;2023-05-13T14:09:10;102107.72;;;29.56;20.03
80401;BME280;69727;53.132;8.230;2023-05-13T14:11:36;102098.47;;;28.76;21.80
80401;BME280;69727;53.132;8.230;2023-05-13T14:14:01;102096.91;;;28.12;21.32
80401;BME280;69727;53.132;8.230;2023-05-13T14:16:27;102106.09;;;28.60;22.28
80401;BME280;69727;53.132;8.230;2023-05-13T14:18:52;102096.09;;;28.71;21.15
80401;BME280;69727;53.132;8.230;2023-05-13T14:21:18;102095.00;;;29.09;21.42
80401;BME280;69727;53.132;8.230;2023-05-13T14:23:43;102094.13;;;28.62;21.76
80401;BME280;69727;53.132;8.230;2023-05-13T14:26:08;102085.97;;;28.49;23.24
80401;BME280;69727;53.132;8.230;2023-05-13T14:28:35;102083.13;;;28.51;22.54
80401;BME280;69727;53.132;8.230;2023-05-13T14:31:01;102087.09;;;28.34;22.25
80401;BME280;69727;53.132;8.230;2023-05-13T14:33:26;102078.19;;;28.08;22.14
80401;BME280;69727;53.132;8.230;2023-05-13T14:35:52;102075.72;;;28.29;21.98
80401;BME280;69727;53.132;8.230;2023-05-13T14:38:21;102076.50;;;28.31;21.84
80401;BME280;69727;53.132;8.230;2023-05-13T14:40:46;102084.59;;;28.68;21.49
80401;BME280;69727;53.132;8.230;2023-05-13T14:43:12;102077.16;;;28.94;20.52
80401;BME280;69727;53.132;8.230;2023-05-13T14:45:38;102076.69;;;29.11;20.83
80401;BME280;69727;53.132;8.230;2023-05-13T14:48:09;102067.94;;;29.30;22.12
80401;BME280;69727;53.132;8.230;2023-05-13T14:50:35;102071.94;;;29.49;20.70
80401;BME280;69727;53.132;8.230;2023-05-13T14:53:01;102079.75;;;29.54;20.40
80401;BME280;69727;53.132;8.230;2023-05-13T14:55:26;102084.31;;;29.42;20.89
80401;BME280;69727;53.132;8.230;2023-05-13T14:57:52;102074.16;;;29.55;21.28
80401;BME280;69727;53.132;8.230;2023-05-13T15:00:18;102072.81;;;29.61;20.65
80401;BME280;69727;53.132;8.230;2023-05-13T15:02:46;102079.88;;;29.41;21.19
80401;BME280;69727;53.132;8.230;2023-05-13T15:05:13;102079.00;;;28.93;21.89
80401;BME280;69727;53.132;8.230;2023-05-13T15:07:39;102072.84;;;28.67;22.23
80401;BME280;69727;53.132;8.230;2023-05-13T15:10:05;102075.81;;;28.27;21.93
80401;BME280;69727;53.132;8.230;2023-05-13T15:12:30;102072.09;;;27.91;22.95
80401;BME280;69727;53.132;8.230;2023-05-13T15:14:57;102067.16;;;27.72;22.77
80401;BME280;69727;53.132;8.230;2023-05-13T15:17:22;102063.25;;;27.50;22.19
80401;BME280;69727;53.132;8.230;2023-05-13T15:19:48;102059.69;;;27.24;22.90
80401;BME280;69727;53.132;8.230;2023-05-13T15:22:13;102056.06;;;27.11;23.03
80401;BME280;69727;53.132;8.230;2023-05-13T15:24:41;102059.66;;;26.98;23.48
80401;BME280;69727;53.132;8.230;2023-05-13T15:27:06;102063.59;;;26.67;23.61
80401;BME280;69727;53.132;8.230;2023-05-13T15:29:32;102053.75;;;26.52;23.45
80401;BME280;69727;53.132;8.230;2023-05-13T15:31:57;102058.28;;;26.38;23.43
80401;BME280;69727;53.132;8.230;2023-05-13T15:34:23;102059.84;;;26.28;24.11
80401;BME280;69727;53.132;8.230;2023-05-13T15:36:48;102064.25;;;26.43;24.11
80401;BME280;69727;53.132;8.230;2023-05-13T15:39:14;102056.88;;;26.46;23.78
80401;BME280;69727;53.132;8.230;2023-05-13T15:41:41;102048.41;;;26.37;23.63